createdAt,value
2022-08-02T00:00:45.158Z,97710.13
2022-08-02T00:03:13.386Z,97711.97
2022-08-02T00:05:41.824Z,97711.97
2022-08-02T00:08:22.659Z,97718.69
2022-08-02T00:10:51.244Z,97717.00
2022-08-02T00:13:19.837Z,97713.72
2022-08-02T00:15:48.210Z,97710.59
2022-08-02T00:18:16.613Z,97712.91
2022-08-02T00:20:44.988Z,97713.13
2022-08-02T00:23:13.562Z,97706.53
2022-08-02T00:25:55.083Z,97703.44
2022-08-02T00:28:27.822Z,97704.94
2022-08-02T00:30:57.500Z,97707.25
2022-08-02T00:34:27.024Z,97696.09
2022-08-02T00:36:14.387Z,97699.22
2022-08-02T00:38:43.078Z,97691.56
2022-08-02T00:41:20.049Z,97694.72
2022-08-02T00:43:50.651Z,97686.22
2022-08-02T00:46:21.116Z,97687.50
2022-08-02T00:48:50.154Z,97696.91
2022-08-02T00:51:19.071Z,97699.19
2022-08-02T00:53:47.407Z,97701.06
2022-08-02T00:56:17.162Z,97704.44
2022-08-02T00:58:45.537Z,97706.56
2022-08-02T01:01:13.972Z,97700.13
2022-08-02T01:03:42.452Z,97706.81
2022-08-02T01:06:11.384Z,97703.09
2022-08-02T01:08:40.350Z,97703.16
2022-08-02T01:11:09.291Z,97704.44
2022-08-02T01:13:39.047Z,97703.22
2022-08-02T01:16:16.340Z,97698.25
2022-08-02T01:18:53.571Z,97700.56
2022-08-02T01:21:42.571Z,97690.41
2022-08-02T01:24:26.065Z,97688.38
2022-08-02T01:27:01.917Z,97684.47
2022-08-02T01:29:36.443Z,97686.56
2022-08-02T01:32:11.290Z,97696.16
2022-08-02T01:34:45.183Z,97700.94
2022-08-02T01:37:20.582Z,97711.94
2022-08-02T01:39:55.821Z,97720.25
2022-08-02T01:42:26.770Z,97728.34
2022-08-02T01:44:58.367Z,97729.63
2022-08-02T01:47:32.901Z,97727.75
2022-08-02T01:50:02.616Z,97732.13
2022-08-02T01:52:34.743Z,97727.75
2022-08-02T01:55:09.790Z,97729.41
2022-08-02T01:57:42.153Z,97732.13
2022-08-02T02:00:13.729Z,97735.63
2022-08-02T02:02:47.496Z,97724.00
2022-08-02T02:05:20.963Z,97733.53
2022-08-02T02:07:53.663Z,97724.00
2022-08-02T02:10:27.765Z,97728.56
2022-08-02T02:12:58.153Z,97732.13
2022-08-02T02:15:29.442Z,97734.81
2022-08-02T02:18:13.051Z,97739.16
2022-08-02T02:20:43.680Z,97740.00
2022-08-02T02:23:13.319Z,97731.28
2022-08-02T02:25:46.587Z,97728.78
2022-08-02T02:28:24.206Z,97723.22
2022-08-02T02:30:59.578Z,97721.56
2022-08-02T02:33:29.687Z,97716.38
2022-08-02T02:36:00.753Z,97718.72
2022-08-02T02:38:33.153Z,97720.78
2022-08-02T02:41:04.665Z,97723.91
2022-08-02T02:43:35.449Z,97734.09
2022-08-02T02:46:07.510Z,97736.16
2022-08-02T02:48:36.628Z,97732.63
2022-08-02T02:51:08.282Z,97732.84
2022-08-02T02:54:30.450Z,97740.94
2022-08-02T02:56:33.501Z,97738.66
2022-08-02T02:59:02.397Z,97754.66
2022-08-02T03:01:55.581Z,97751.09
2022-08-02T03:04:22.513Z,97755.06
2022-08-02T03:06:50.961Z,97759.63
2022-08-02T03:09:19.318Z,97764.00
2022-08-02T03:11:47.948Z,97758.81
2022-08-02T03:14:16.617Z,97759.63
2022-08-02T03:16:48.685Z,97761.75
2022-08-02T03:19:17.885Z,97760.69
2022-08-02T03:21:47.826Z,97758.00
2022-08-02T03:24:27.715Z,97769.63
2022-08-02T03:26:56.788Z,97759.03
2022-08-02T03:29:25.113Z,97759.03
2022-08-02T03:31:56.587Z,97760.91
2022-08-02T03:34:25.273Z,97759.47
2022-08-02T03:36:57.400Z,97759.69
2022-08-02T03:39:27.609Z,97766.09
2022-08-02T03:41:56.734Z,97748.88
2022-08-02T03:44:26.786Z,97742.66
2022-08-02T03:46:56.677Z,97748.06
2022-08-02T03:49:25.563Z,97748.25
2022-08-02T03:51:54.970Z,97743.91
2022-08-02T03:54:32.968Z,97750.13
2022-08-02T03:57:12.737Z,97758.44
2022-08-02T03:59:46.011Z,97758.66
2022-08-02T04:02:15.930Z,97772.97
2022-08-02T04:04:44.262Z,97771.13
2022-08-02T04:07:12.590Z,97783.56
2022-08-02T04:09:41.018Z,97783.78
2022-08-02T04:12:10.127Z,97784.59
2022-08-02T04:14:38.704Z,97788.31
2022-08-02T04:17:10.524Z,97792.91
2022-08-02T04:19:45.636Z,97797.69
2022-08-02T04:22:22.915Z,97800.38
2022-08-02T04:24:53.291Z,97792.28
2022-08-02T04:27:50.573Z,97797.91
2022-08-02T04:30:14.192Z,97795.63
2022-08-02T04:32:42.881Z,97802.66
2022-08-02T04:35:20.517Z,97801.03
2022-08-02T04:38:09.449Z,97811.19
2022-08-02T04:40:38.720Z,97802.50
2022-08-02T04:43:07.194Z,97814.09
2022-08-02T04:45:36.945Z,97814.09
2022-08-02T04:48:06.578Z,97822.41
2022-08-02T04:50:36.533Z,97826.78
2022-08-02T04:53:05.115Z,97818.69
2022-08-02T04:55:33.736Z,97817.63
2022-08-02T04:58:04.253Z,97817.63
2022-08-02T05:00:38.156Z,97822.81
2022-08-02T05:03:06.634Z,97824.47
2022-08-02T05:05:36.435Z,97820.53
2022-08-02T05:08:05.225Z,97832.97
2022-08-02T05:10:33.579Z,97823.81
2022-08-02T05:13:01.878Z,97826.09
2022-08-02T05:15:33.229Z,97831.28
2022-08-02T05:18:01.921Z,97831.69
2022-08-02T05:20:30.239Z,97828.78
2022-08-02T05:22:59.931Z,97824.81
2022-08-02T05:25:28.496Z,97825.22
2022-08-02T05:27:56.800Z,97822.31
2022-08-02T05:30:25.355Z,97819.81
2022-08-02T05:32:53.703Z,97815.06
2022-08-02T05:35:24.905Z,97805.94
2022-08-02T05:37:53.938Z,97800.91
2022-08-02T05:40:25.670Z,97801.53
2022-08-02T05:42:54.582Z,97799.44
2022-08-02T05:45:22.937Z,97801.13
2022-08-02T05:47:51.338Z,97798.63
2022-08-02T05:50:20.116Z,97802.97
2022-08-02T05:52:53.025Z,97802.97
2022-08-02T05:55:31.870Z,97803.59
2022-08-02T05:58:08.135Z,97802.31
2022-08-02T06:00:36.752Z,97802.31
2022-08-02T06:03:17.757Z,97806.47
2022-08-02T06:05:54.819Z,97806.03
2022-08-02T06:08:26.776Z,97808.91
2022-08-02T06:11:02.682Z,97807.84
2022-08-02T06:13:31.379Z,97805.69
2022-08-02T06:16:00.826Z,97811.28
2022-08-02T06:18:30.011Z,97812.19
2022-08-02T06:22:30.597Z,97810.69
2022-08-02T06:23:58.602Z,97817.06
2022-08-02T06:26:29.874Z,97817.00
2022-08-02T06:28:59.775Z,97807.59
2022-08-02T06:31:28.098Z,97810.22
2022-08-02T06:33:57.315Z,97807.03
2022-08-02T06:36:43.586Z,97810.03
2022-08-02T06:39:20.761Z,97806.88
2022-08-02T06:41:51.685Z,97808.00
2022-08-02T06:44:46.025Z,97803.53
2022-08-02T06:47:10.959Z,97810.88
2022-08-02T06:49:51.773Z,97812.84
2022-08-02T06:52:28.291Z,97813.34
2022-08-02T06:54:58.574Z,97807.44
2022-08-02T06:57:28.681Z,97815.84
2022-08-02T06:59:57.257Z,97821.53
2022-08-02T07:02:26.077Z,97812.88
2022-08-02T07:04:54.400Z,97815.28
2022-08-02T07:07:22.770Z,97819.69
2022-08-02T07:09:57.709Z,97812.69
2022-08-02T07:12:32.446Z,97818.59
2022-08-02T07:15:02.376Z,97820.53
2022-08-02T07:17:31.531Z,97824.31
2022-08-02T07:20:00.212Z,97827.03
2022-08-02T07:22:29.438Z,97821.06
2022-08-02T07:25:02.982Z,97822.50
2022-08-02T07:27:32.883Z,97820.63
2022-08-02T07:30:01.583Z,97821.81
2022-08-02T07:32:32.981Z,97829.94
2022-08-02T07:35:06.488Z,97826.75
2022-08-02T07:37:53.551Z,97830.03
2022-08-02T07:40:25.381Z,97831.94
2022-08-02T07:43:03.016Z,97826.81
2022-08-02T07:45:36.067Z,97831.59
2022-08-02T07:48:21.867Z,97838.94
2022-08-02T07:50:50.419Z,97835.50
2022-08-02T07:53:18.970Z,97835.31
2022-08-02T07:55:47.257Z,97836.84
2022-08-02T07:58:17.116Z,97845.59
2022-08-02T08:00:45.970Z,97833.72
2022-08-02T08:03:14.536Z,97844.97
2022-08-02T08:05:43.140Z,97834.66
2022-08-02T08:08:17.200Z,97835.22
2022-08-02T08:10:46.432Z,97837.72
2022-08-02T08:13:16.838Z,97836.38
2022-08-02T08:15:51.985Z,97828.47
2022-08-02T08:18:21.764Z,97832.34
2022-08-02T08:20:50.202Z,97832.59
2022-08-02T08:23:18.480Z,97830.09
2022-08-02T08:25:46.869Z,97830.09
2022-08-02T08:28:16.562Z,97824.59
2022-08-02T08:30:44.953Z,97821.03
2022-08-02T08:33:13.284Z,97824.91
2022-08-02T08:35:41.902Z,97818.69
2022-08-02T08:38:10.372Z,97821.41
2022-08-02T08:40:39.082Z,97819.16
2022-08-02T08:43:07.389Z,97815.38
2022-08-02T08:45:37.126Z,97808.84
2022-08-02T08:48:13.799Z,97811.31
2022-08-02T08:50:49.453Z,97811.78
2022-08-02T08:53:20.536Z,97812.66
2022-08-02T08:55:50.002Z,97811.94
2022-08-02T08:58:18.403Z,97805.28
2022-08-02T09:00:48.791Z,97816.94
2022-08-02T09:03:19.472Z,97812.78
2022-08-02T09:05:48.034Z,97815.69
2022-08-02T09:08:17.129Z,97821.53
2022-08-02T09:10:47.962Z,97816.97
2022-08-02T09:13:38.311Z,97813.63
2022-08-02T09:16:13.028Z,97816.41
2022-08-02T09:18:45.433Z,97814.72
2022-08-02T09:21:16.357Z,97811.88
2022-08-02T09:23:46.853Z,97817.72
2022-08-02T09:26:17.220Z,97804.75
2022-08-02T09:28:48.334Z,97818.25
2022-08-02T09:31:20.102Z,97824.47
2022-08-02T09:33:55.430Z,97825.19
2022-08-02T09:36:25.353Z,97826.50
2022-08-02T09:38:57.533Z,97828.59
2022-08-02T09:41:28.615Z,97830.69
2022-08-02T09:44:05.542Z,97832.50
2022-08-02T09:46:38.979Z,97824.41
2022-08-02T09:49:10.504Z,97816.06
2022-08-02T09:51:41.692Z,97824.38
2022-08-02T09:54:12.894Z,97824.75
2022-08-02T09:56:44.798Z,97821.00
2022-08-02T09:59:14.616Z,97821.56
2022-08-02T10:01:50.838Z,97826.16
2022-08-02T10:04:31.632Z,97825.34
2022-08-02T10:07:04.103Z,97820.47
2022-08-02T10:09:33.907Z,97810.66
2022-08-02T10:12:03.325Z,97823.03
2022-08-02T10:14:35.801Z,97819.00
2022-08-02T10:17:06.139Z,97822.00
2022-08-02T10:20:00.095Z,97817.94
2022-08-02T10:22:24.241Z,97821.56
2022-08-02T10:24:53.969Z,97812.56
2022-08-02T10:27:25.758Z,97818.88
2022-08-02T10:30:00.016Z,97813.38
2022-08-02T10:32:35.309Z,97801.06
2022-08-02T10:35:20.133Z,97807.63
2022-08-02T10:37:57.901Z,97802.72
2022-08-02T10:40:27.341Z,97797.53
2022-08-02T10:43:01.007Z,97792.06
2022-08-02T10:45:30.243Z,97797.81
2022-08-02T10:48:06.198Z,97795.31
2022-08-02T10:51:04.492Z,97792.03
2022-08-02T10:53:34.923Z,97787.91
2022-08-02T10:56:05.896Z,97790.38
2022-08-02T10:58:37.728Z,97780.75
2022-08-02T11:01:38.656Z,97782.72
2022-08-02T11:04:10.758Z,97786.25
2022-08-02T11:07:16.971Z,97778.84
2022-08-02T11:09:46.949Z,97774.47
2022-08-02T11:12:17.521Z,97767.88
2022-08-02T11:14:48.394Z,97766.22
2022-08-02T11:17:18.377Z,97766.16
2022-08-02T11:20:23.073Z,97760.91
2022-08-02T11:22:53.740Z,97755.69
2022-08-02T11:26:03.138Z,97755.66
2022-08-02T11:28:26.663Z,97748.72
2022-08-02T11:31:03.076Z,97747.06
2022-08-02T11:33:36.920Z,97736.94
2022-08-02T11:36:09.347Z,97740.78
2022-08-02T11:38:37.633Z,97738.84
2022-08-02T11:41:09.913Z,97731.69
2022-08-02T11:43:41.285Z,97727.59
2022-08-02T11:46:15.579Z,97725.88
2022-08-02T11:48:45.215Z,97724.16
2022-08-02T11:51:17.635Z,97726.28
2022-08-02T11:53:48.846Z,97725.38
2022-08-02T11:56:25.116Z,97720.97
2022-08-02T11:59:08.545Z,97734.41
2022-08-02T12:01:46.012Z,97728.81
2022-08-02T12:04:22.520Z,97733.41
2022-08-02T12:07:01.212Z,97732.78
2022-08-02T12:09:39.219Z,97723.59
2022-08-02T12:12:09.635Z,97729.50
2022-08-02T12:14:44.506Z,97727.56
2022-08-02T12:17:35.549Z,97724.69
2022-08-02T12:20:03.917Z,97729.59
2022-08-02T12:22:41.487Z,97728.63
2022-08-02T12:25:33.324Z,97729.91
2022-08-02T12:28:20.460Z,97732.84
2022-08-02T12:30:54.961Z,97732.72
2022-08-02T12:33:24.320Z,97735.06
2022-08-02T12:35:53.130Z,97734.41
2022-08-02T12:38:23.410Z,97730.25
2022-08-02T12:40:52.211Z,97726.13
2022-08-02T12:43:23.735Z,97718.22
2022-08-02T12:45:55.468Z,97717.97
2022-08-02T12:48:42.773Z,97714.69
2022-08-02T12:51:58.999Z,97713.59
2022-08-02T12:54:24.188Z,97707.56
2022-08-02T12:57:11.018Z,97708.91
2022-08-02T12:59:42.174Z,97698.72
2022-08-02T13:02:13.384Z,97701.38
2022-08-02T13:04:50.239Z,97700.50
2022-08-02T13:07:19.233Z,97700.72
2022-08-02T13:09:50.155Z,97688.28
2022-08-02T13:12:18.613Z,97689.38
2022-08-02T13:14:46.974Z,97688.97
2022-08-02T13:17:15.275Z,97688.59
2022-08-02T13:19:43.621Z,97685.00
2022-08-02T13:22:13.562Z,97677.25
2022-08-02T13:24:56.197Z,97680.22
2022-08-02T13:27:28.607Z,97667.28
2022-08-02T13:29:58.610Z,97666.91
2022-08-02T13:32:28.915Z,97670.69
2022-08-02T13:34:59.105Z,97664.56
2022-08-02T13:37:27.746Z,97667.53
2022-08-02T13:40:20.049Z,97657.34
2022-08-02T13:42:46.151Z,97654.28
2022-08-02T13:45:14.858Z,97648.69
2022-08-02T13:48:03.683Z,97647.28
2022-08-02T13:50:33.663Z,97640.84
2022-08-02T13:53:01.989Z,97640.56
2022-08-02T13:55:30.757Z,97645.44
2022-08-02T13:58:00.596Z,97626.19
2022-08-02T14:00:35.387Z,97630.84
2022-08-02T14:03:06.853Z,97627.00
2022-08-02T14:05:47.867Z,97625.66
2022-08-02T14:08:19.107Z,97625.94
2022-08-02T14:10:48.571Z,97624.31
2022-08-02T14:13:19.023Z,97622.69
2022-08-02T14:15:48.171Z,97622.69
2022-08-02T14:18:16.666Z,97623.72
2022-08-02T14:20:45.829Z,97626.19
2022-08-02T14:23:14.257Z,97622.28
2022-08-02T14:25:42.798Z,97617.50
2022-08-02T14:28:11.095Z,97616.16
2022-08-02T14:30:40.932Z,97612.91
2022-08-02T14:33:09.303Z,97617.59
2022-08-02T14:35:37.719Z,97625.31
2022-08-02T14:38:06.248Z,97620.72
2022-08-02T14:40:35.013Z,97620.81
2022-08-02T14:43:04.037Z,97617.53
2022-08-02T14:45:39.889Z,97628.06
2022-08-02T14:48:12.407Z,97621.19
2022-08-02T14:50:40.944Z,97616.53
2022-08-02T14:53:12.459Z,97616.72
2022-08-02T14:55:42.631Z,97611.44
2022-08-02T14:58:11.508Z,97610.00
2022-08-02T15:00:41.417Z,97612.69
2022-08-02T15:03:11.573Z,97618.09
2022-08-02T15:05:39.947Z,97614.53
2022-08-02T15:08:08.541Z,97616.97
2022-08-02T15:10:37.017Z,97604.53
2022-08-02T15:13:05.423Z,97610.56
2022-08-02T15:15:43.142Z,97609.44
2022-08-02T15:18:14.314Z,97610.25
2022-08-02T15:20:50.082Z,97612.19
2022-08-02T15:23:37.133Z,97612.47
2022-08-02T15:26:06.533Z,97605.34
2022-08-02T15:28:35.388Z,97602.91
2022-08-02T15:31:03.927Z,97605.34
2022-08-02T15:33:33.629Z,97609.53
2022-08-02T15:36:01.986Z,97609.84
2022-08-02T15:38:30.518Z,97601.56
2022-08-02T15:40:58.872Z,97590.56
2022-08-02T15:43:27.427Z,97599.13
2022-08-02T15:45:55.754Z,97600.84
2022-08-02T15:48:24.263Z,97606.16
2022-08-02T15:50:54.077Z,97604.78
2022-08-02T15:53:22.427Z,97605.63
2022-08-02T15:56:04.284Z,97606.44
2022-08-02T15:58:42.562Z,97597.88
2022-08-02T16:01:13.162Z,97594.59
2022-08-02T16:03:41.550Z,97599.00
2022-08-02T16:06:11.689Z,97600.66
2022-08-02T16:08:44.573Z,97597.06
2022-08-02T16:11:22.430Z,97601.75
2022-08-02T16:13:56.773Z,97601.53
2022-08-02T16:16:29.072Z,97603.59
2022-08-02T16:18:57.889Z,97603.66
2022-08-02T16:21:28.169Z,97602.94
2022-08-02T16:23:58.637Z,97595.25
2022-08-02T16:26:31.269Z,97600.00
2022-08-02T16:29:00.634Z,97602.03
2022-08-02T16:31:29.095Z,97599.34
2022-08-02T16:33:57.652Z,97603.00
2022-08-02T16:36:28.187Z,97598.41
2022-08-02T16:38:57.005Z,97595.22
2022-08-02T16:41:51.371Z,97601.31
2022-08-02T16:44:14.215Z,97585.19
2022-08-02T16:46:45.037Z,97588.56
2022-08-02T16:50:04.259Z,97580.63
2022-08-02T16:52:03.713Z,97588.66
2022-08-02T16:54:32.183Z,97589.53
2022-08-02T16:57:00.478Z,97585.75
2022-08-02T16:59:34.087Z,97584.72
2022-08-02T17:02:18.007Z,97587.53
2022-08-02T17:04:47.476Z,97602.16
2022-08-02T17:08:10.475Z,97589.31
2022-08-02T17:10:09.587Z,97590.50
2022-08-02T17:12:39.204Z,97593.28
2022-08-02T17:16:00.979Z,97591.44
2022-08-02T17:17:58.116Z,97589.31
2022-08-02T17:20:26.531Z,97592.13
2022-08-02T17:22:56.637Z,97590.84
2022-08-02T17:25:32.015Z,97588.19
2022-08-02T17:28:01.191Z,97591.56
2022-08-02T17:30:29.629Z,97592.19
2022-08-02T17:32:59.461Z,97596.97
2022-08-02T17:35:43.491Z,97600.34
2022-08-02T17:38:26.674Z,97598.00
2022-08-02T17:40:56.223Z,97595.94
2022-08-02T17:43:25.960Z,97596.00
2022-08-02T17:46:00.719Z,97592.50
2022-08-02T17:48:55.358Z,97599.50
2022-08-02T17:52:15.921Z,97599.31
2022-08-02T17:54:14.327Z,97609.81
2022-08-02T17:56:47.713Z,97603.56
2022-08-02T17:59:20.788Z,97601.19
2022-08-02T18:01:52.985Z,97605.06
2022-08-02T18:04:26.851Z,97615.25
2022-08-02T18:06:58.084Z,97610.94
2022-08-02T18:09:28.626Z,97613.41
2022-08-02T18:11:58.874Z,97607.47
2022-08-02T18:14:27.287Z,97605.28
2022-08-02T18:16:55.736Z,97609.13
2022-08-02T18:19:42.142Z,97611.88
2022-08-02T18:22:11.462Z,97610.25
2022-08-02T18:24:41.687Z,97605.09
2022-08-02T18:27:14.046Z,97609.50
2022-08-02T18:29:42.559Z,97614.94
2022-08-02T18:32:11.610Z,97616.03
2022-08-02T18:34:40.664Z,97605.38
2022-08-02T18:37:16.061Z,97608.41
2022-08-02T18:39:51.392Z,97611.94
2022-08-02T18:42:20.245Z,97610.53
2022-08-02T18:44:48.618Z,97614.91
2022-08-02T18:47:17.053Z,97612.97
2022-08-02T18:49:47.979Z,97617.59
2022-08-02T18:52:31.458Z,97614.81
2022-08-02T18:55:01.486Z,97615.84
2022-08-02T18:58:01.814Z,97629.47
2022-08-02T19:00:20.678Z,97625.34
2022-08-02T19:02:54.090Z,97626.09
2022-08-02T19:05:24.352Z,97620.88
2022-08-02T19:08:13.149Z,97627.84
2022-08-02T19:10:49.426Z,97641.13
2022-08-02T19:13:18.962Z,97632.63
2022-08-02T19:15:47.887Z,97631.97
2022-08-02T19:18:16.399Z,97639.81
2022-08-02T19:20:48.328Z,97638.06
2022-08-02T19:23:17.301Z,97638.81
2022-08-02T19:25:54.633Z,97637.38
2022-08-02T19:31:11.555Z,97641.31
2022-08-02T19:34:05.763Z,97641.50
2022-08-02T19:36:29.012Z,97647.38
2022-08-02T19:38:57.405Z,97639.44
2022-08-02T19:41:27.109Z,97643.19
2022-08-02T19:44:25.767Z,97639.81
2022-08-02T19:46:57.120Z,97643.81
2022-08-02T19:49:40.393Z,97635.03
2022-08-02T19:52:20.636Z,97651.06
2022-08-02T19:54:55.901Z,97649.38
2022-08-02T19:57:26.415Z,97656.59
2022-08-02T19:59:56.920Z,97660.06
2022-08-02T20:02:26.512Z,97652.13
2022-08-02T20:04:55.201Z,97657.47
2022-08-02T20:07:49.879Z,97653.31
2022-08-02T20:10:13.599Z,97652.91
2022-08-02T20:12:54.841Z,97651.19
2022-08-02T20:15:23.858Z,97661.75
2022-08-02T20:18:12.145Z,97654.03
2022-08-02T20:20:44.109Z,97652.53
2022-08-02T20:23:33.772Z,97652.69
2022-08-02T20:26:02.710Z,97665.66
2022-08-02T20:28:33.043Z,97649.25
2022-08-02T20:31:07.026Z,97647.53
2022-08-02T20:33:56.074Z,97648.53
2022-08-02T20:36:24.973Z,97641.59
2022-08-02T20:38:54.495Z,97648.03
2022-08-02T20:41:23.961Z,97640.06
2022-08-02T20:44:15.464Z,97639.34
2022-08-02T20:46:45.480Z,97645.50
2022-08-02T20:49:21.639Z,97635.41
2022-08-02T20:52:03.222Z,97638.03
2022-08-02T20:54:51.502Z,97644.44
2022-08-02T20:57:19.880Z,97647.88
2022-08-02T21:00:11.917Z,97647.78
2022-08-02T21:02:40.758Z,97647.47
2022-08-02T21:05:17.328Z,97647.13
2022-08-02T21:07:47.893Z,97647.84
2022-08-02T21:10:24.046Z,97641.50
2022-08-02T21:12:52.571Z,97644.97
2022-08-02T21:15:22.261Z,97640.81
2022-08-02T21:17:59.749Z,97641.53
2022-08-02T21:20:31.596Z,97642.28
2022-08-02T21:22:59.934Z,97647.81
2022-08-02T21:25:50.905Z,97645.00
2022-08-02T21:28:17.770Z,97653.88
2022-08-02T21:30:48.331Z,97642.94
2022-08-02T21:33:18.190Z,97646.13
2022-08-02T21:35:52.664Z,97652.28
2022-08-02T21:38:35.560Z,97646.72
2022-08-02T21:41:11.114Z,97649.59
2022-08-02T21:43:43.932Z,97640.50
2022-08-02T21:46:14.735Z,97650.44
2022-08-02T21:48:43.217Z,97645.09
2022-08-02T21:51:15.868Z,97641.69
2022-08-02T21:54:17.437Z,97647.47
2022-08-02T21:56:33.021Z,97647.63
2022-08-02T21:59:04.799Z,97645.84
2022-08-02T22:01:53.225Z,97644.31
2022-08-02T22:04:34.932Z,97641.16
2022-08-02T22:07:03.259Z,97654.34
2022-08-02T22:09:42.376Z,97641.72
2022-08-02T22:12:16.500Z,97647.63
2022-08-02T22:14:49.754Z,97649.34
2022-08-02T22:17:52.221Z,97652.75
2022-08-02T22:20:19.956Z,97659.69
2022-08-02T22:22:52.145Z,97654.72
2022-08-02T22:25:36.022Z,97660.66
2022-08-02T22:28:38.921Z,97655.94
2022-08-02T22:30:58.234Z,97669.09
2022-08-02T22:34:01.270Z,97669.56
2022-08-02T22:36:31.498Z,97670.25
2022-08-02T22:39:00.611Z,97668.63
2022-08-02T22:42:01.345Z,97673.44
2022-08-02T22:44:18.676Z,97670.34
2022-08-02T22:46:49.969Z,97667.28
2022-08-02T22:49:38.707Z,97660.44
2022-08-02T22:52:08.921Z,97663.84
2022-08-02T22:54:39.278Z,97665.97
2022-08-02T22:57:11.404Z,97661.03
2022-08-02T22:58:48.174Z,97640.84
2022-08-02T22:59:41.278Z,97662.28
2022-08-02T23:02:10.256Z,97666.28
2022-08-02T23:04:40.072Z,97670.25
2022-08-02T23:07:08.406Z,97664.25
2022-08-02T23:09:36.841Z,97664.69
2022-08-02T23:12:06.340Z,97675.19
2022-08-02T23:14:34.621Z,97670.22
2022-08-02T23:17:20.614Z,97677.72
2022-08-02T23:19:53.159Z,97667.38
2022-08-02T23:22:29.708Z,97670.75
2022-08-02T23:25:02.400Z,97673.91
2022-08-02T23:27:31.613Z,97676.03
2022-08-02T23:30:00.429Z,97673.78
2022-08-02T23:32:29.877Z,97680.47
2022-08-02T23:34:59.959Z,97673.03
2022-08-02T23:37:28.239Z,97679.75
2022-08-02T23:40:16.541Z,97683.94
2022-08-02T23:43:13.281Z,97685.44
2022-08-02T23:45:45.441Z,97684.03
2022-08-02T23:48:13.792Z,97683.66
2022-08-02T23:50:43.455Z,97686.56
2022-08-02T23:53:11.750Z,97681.63
2022-08-02T23:55:40.049Z,97683.13
2022-08-02T23:58:08.340Z,97694.16
